sensor_id;sensor_type;location;lat;lon;timestamp;temperature;humidity
11264;DHT22;5689;48.798;9.070;2023-02-15T00:02:03;-0.20;99.90
11264;DHT22;5689;48.798;9.070;2023-02-15T00:04:31;-0.30;99.90
11264;DHT22;5689;48.798;9.070;2023-02-15T00:07:14;-0.40;99.90
11264;DHT22;5689;48.798;9.070;2023-02-15T00:09:44;-0.40;99.90
11264;DHT22;5689;48.798;9.070;2023-02-15T00:12:12;-0.50;99.90
11264;DHT22;5689;48.798;9.070;2023-02-15T00:14:40;-0.50;99.90
11264;DHT22;5689;48.798;9.070;2023-02-15T00:17:10;-0.40;99.90
11264;DHT22;5689;48.798;9.070;2023-02-15T00:19:38;-0.50;99.90
11264;DHT22;5689;48.798;9.070;2023-02-15T00:22:07;-0.40;99.90
11264;DHT22;5689;48.798;9.070;2023-02-15T00:24:35;-0.50;99.90
11264;DHT22;5689;48.798;9.070;2023-02-15T00:27:03;-0.40;99.90
11264;DHT22;5689;48.798;9.070;2023-02-15T00:29:31;-0.50;99.90
11264;DHT22;5689;48.798;9.070;2023-02-15T00:31:59;-0.40;99.90
11264;DHT22;5689;48.798;9.070;2023-02-15T00:34:28;-0.40;99.90
11264;DHT22;5689;48.798;9.070;2023-02-15T00:36:56;-0.50;99.90
11264;DHT22;5689;48.798;9.070;2023-02-15T00:39:24;-0.60;99.90
11264;DHT22;5689;48.798;9.070;2023-02-15T00:41:53;-0.60;99.90
11264;DHT22;5689;48.798;9.070;2023-02-15T00:44:22;-0.50;99.90
11264;DHT22;5689;48.798;9.070;2023-02-15T00:46:50;-0.60;99.90
11264;DHT22;5689;48.798;9.070;2023-02-15T00:49:20;-0.70;99.90
11264;DHT22;5689;48.798;9.070;2023-02-15T00:51:49;-0.70;99.90
11264;DHT22;5689;48.798;9.070;2023-02-15T00:54:17;-0.80;99.90
11264;DHT22;5689;48.798;9.070;2023-02-15T00:56:45;-0.90;99.90
11264;DHT22;5689;48.798;9.070;2023-02-15T00:59:13;-0.90;99.90
11264;DHT22;5689;48.798;9.070;2023-02-15T01:01:41;-0.90;99.90
11264;DHT22;5689;48.798;9.070;2023-02-15T01:04:09;-0.80;99.90
11264;DHT22;5689;48.798;9.070;2023-02-15T01:06:37;-0.90;99.90
11264;DHT22;5689;48.798;9.070;2023-02-15T01:09:06;-0.90;99.90
11264;DHT22;5689;48.798;9.070;2023-02-15T01:11:36;-0.90;99.90
11264;DHT22;5689;48.798;9.070;2023-02-15T01:14:04;-0.80;99.90
11264;DHT22;5689;48.798;9.070;2023-02-15T01:16:32;-0.90;99.90
11264;DHT22;5689;48.798;9.070;2023-02-15T01:19:00;-0.80;99.90
11264;DHT22;5689;48.798;9.070;2023-02-15T01:21:31;-0.90;99.90
11264;DHT22;5689;48.798;9.070;2023-02-15T01:24:02;-1.00;99.90
11264;DHT22;5689;48.798;9.070;2023-02-15T01:26:31;-0.90;99.90
11264;DHT22;5689;48.798;9.070;2023-02-15T01:28:59;-0.90;99.90
11264;DHT22;5689;48.798;9.070;2023-02-15T01:31:27;-0.80;99.90
11264;DHT22;5689;48.798;9.070;2023-02-15T01:33:55;-0.50;99.90
11264;DHT22;5689;48.798;9.070;2023-02-15T01:36:23;-0.50;99.90
11264;DHT22;5689;48.798;9.070;2023-02-15T01:38:51;-0.70;99.90
11264;DHT22;5689;48.798;9.070;2023-02-15T01:41:19;-0.80;99.90
11264;DHT22;5689;48.798;9.070;2023-02-15T01:43:56;-1.00;99.90
11264;DHT22;5689;48.798;9.070;2023-02-15T01:46:28;-0.90;99.90
11264;DHT22;5689;48.798;9.070;2023-02-15T01:49:03;-0.90;99.90
11264;DHT22;5689;48.798;9.070;2023-02-15T01:51:36;-1.10;99.90
11264;DHT22;5689;48.798;9.070;2023-02-15T01:54:09;-1.10;99.90
11264;DHT22;5689;48.798;9.070;2023-02-15T01:56:41;-1.20;99.90
11264;DHT22;5689;48.798;9.070;2023-02-15T01:59:16;-1.20;99.90
11264;DHT22;5689;48.798;9.070;2023-02-15T02:01:49;-1.20;99.90
11264;DHT22;5689;48.798;9.070;2023-02-15T02:04:20;-1.20;99.90
11264;DHT22;5689;48.798;9.070;2023-02-15T02:06:51;-1.30;99.90
11264;DHT22;5689;48.798;9.070;2023-02-15T02:09:19;-1.20;99.90
11264;DHT22;5689;48.798;9.070;2023-02-15T02:11:49;-1.00;99.90
11264;DHT22;5689;48.798;9.070;2023-02-15T02:14:18;-1.00;99.90
11264;DHT22;5689;48.798;9.070;2023-02-15T02:16:53;-0.80;99.90
11264;DHT22;5689;48.798;9.070;2023-02-15T02:19:51;-0.80;99.90
11264;DHT22;5689;48.798;9.070;2023-02-15T02:32:05;-0.70;99.90
11264;DHT22;5689;48.798;9.070;2023-02-15T02:34:40;-0.50;99.90
11264;DHT22;5689;48.798;9.070;2023-02-15T02:37:18;-0.50;99.90
11264;DHT22;5689;48.798;9.070;2023-02-15T02:39:55;-0.50;99.90
11264;DHT22;5689;48.798;9.070;2023-02-15T02:42:31;-0.60;99.90
11264;DHT22;5689;48.798;9.070;2023-02-15T02:45:04;-0.70;99.90
11264;DHT22;5689;48.798;9.070;2023-02-15T02:47:38;-0.70;99.90
11264;DHT22;5689;48.798;9.070;2023-02-15T02:50:13;-0.80;99.90
11264;DHT22;5689;48.798;9.070;2023-02-15T02:52:43;-0.90;99.90
11264;DHT22;5689;48.798;9.070;2023-02-15T02:55:13;-0.70;99.90
11264;DHT22;5689;48.798;9.070;2023-02-15T02:57:50;-0.80;99.90
11264;DHT22;5689;48.798;9.070;2023-02-15T03:00:21;-0.80;99.90
11264;DHT22;5689;48.798;9.070;2023-02-15T03:02:54;-0.70;99.90
11264;DHT22;5689;48.798;9.070;2023-02-15T03:05:27;-0.70;99.90
11264;DHT22;5689;48.798;9.070;2023-02-15T03:07:58;-0.70;99.90
11264;DHT22;5689;48.798;9.070;2023-02-15T03:10:28;-0.50;99.90
11264;DHT22;5689;48.798;9.070;2023-02-15T03:12:57;-0.40;99.90
11264;DHT22;5689;48.798;9.070;2023-02-15T03:15:30;-0.50;99.90
11264;DHT22;5689;48.798;9.070;2023-02-15T03:18:23;-0.60;99.90
11264;DHT22;5689;48.798;9.070;2023-02-15T03:20:55;-0.50;99.90
11264;DHT22;5689;48.798;9.070;2023-02-15T03:23:25;-0.60;99.90
11264;DHT22;5689;48.798;9.070;2023-02-15T03:26:01;-0.40;99.90
11264;DHT22;5689;48.798;9.070;2023-02-15T03:28:42;-0.40;99.90
11264;DHT22;5689;48.798;9.070;2023-02-15T03:31:12;-0.30;99.90
11264;DHT22;5689;48.798;9.070;2023-02-15T03:33:47;-0.40;99.90
11264;DHT22;5689;48.798;9.070;2023-02-15T03:36:21;-0.40;99.90
11264;DHT22;5689;48.798;9.070;2023-02-15T03:38:55;-0.70;99.90
11264;DHT22;5689;48.798;9.070;2023-02-15T03:41:31;-1.00;99.90
11264;DHT22;5689;48.798;9.070;2023-02-15T03:44:04;-0.80;99.90
11264;DHT22;5689;48.798;9.070;2023-02-15T03:46:39;-0.70;99.90
11264;DHT22;5689;48.798;9.070;2023-02-15T03:49:11;-0.50;99.90
11264;DHT22;5689;48.798;9.070;2023-02-15T03:51:46;-0.70;99.90
11264;DHT22;5689;48.798;9.070;2023-02-15T03:54:19;-0.60;99.90
11264;DHT22;5689;48.798;9.070;2023-02-15T03:57:02;-0.80;99.90
11264;DHT22;5689;48.798;9.070;2023-02-15T03:59:48;-0.90;99.90
11264;DHT22;5689;48.798;9.070;2023-02-15T04:02:42;-0.80;99.90
11264;DHT22;5689;48.798;9.070;2023-02-15T04:05:12;-1.00;99.90
11264;DHT22;5689;48.798;9.070;2023-02-15T04:07:41;-1.00;99.90
11264;DHT22;5689;48.798;9.070;2023-02-15T04:10:10;-1.20;99.90
11264;DHT22;5689;48.798;9.070;2023-02-15T04:15:41;-1.00;99.90
11264;DHT22;5689;48.798;9.070;2023-02-15T04:18:27;-1.10;99.90
11264;DHT22;5689;48.798;9.070;2023-02-15T04:21:14;-1.20;99.90
11264;DHT22;5689;48.798;9.070;2023-02-15T04:24:01;-1.10;99.90
11264;DHT22;5689;48.798;9.070;2023-02-15T04:26:46;-1.40;99.90
11264;DHT22;5689;48.798;9.070;2023-02-15T04:29:15;-1.30;99.90
11264;DHT22;5689;48.798;9.070;2023-02-15T04:31:44;-1.10;99.90
11264;DHT22;5689;48.798;9.070;2023-02-15T04:34:15;-1.20;99.90
11264;DHT22;5689;48.798;9.070;2023-02-15T04:36:47;-0.90;99.90
11264;DHT22;5689;48.798;9.070;2023-02-15T04:39:19;-1.30;99.90
11264;DHT22;5689;48.798;9.070;2023-02-15T04:41:47;-1.20;99.90
11264;DHT22;5689;48.798;9.070;2023-02-15T04:44:16;-1.10;99.90
11264;DHT22;5689;48.798;9.070;2023-02-15T04:46:45;-1.00;99.90
11264;DHT22;5689;48.798;9.070;2023-02-15T04:49:14;-0.90;99.90
11264;DHT22;5689;48.798;9.070;2023-02-15T04:51:43;-1.30;99.90
11264;DHT22;5689;48.798;9.070;2023-02-15T04:54:12;-1.80;99.90
11264;DHT22;5689;48.798;9.070;2023-02-15T04:56:43;-1.20;99.90
11264;DHT22;5689;48.798;9.070;2023-02-15T04:59:12;-1.40;99.90
11264;DHT22;5689;48.798;9.070;2023-02-15T05:01:50;-1.30;99.90
11264;DHT22;5689;48.798;9.070;2023-02-15T05:04:18;-1.20;99.90
11264;DHT22;5689;48.798;9.070;2023-02-15T05:06:47;-0.90;99.90
11264;DHT22;5689;48.798;9.070;2023-02-15T05:09:16;-1.00;99.90
11264;DHT22;5689;48.798;9.070;2023-02-15T05:11:47;-1.00;99.90
11264;DHT22;5689;48.798;9.070;2023-02-15T05:14:15;-1.10;99.90
11264;DHT22;5689;48.798;9.070;2023-02-15T05:16:44;-1.60;99.90
11264;DHT22;5689;48.798;9.070;2023-02-15T05:19:13;-1.50;99.90
11264;DHT22;5689;48.798;9.070;2023-02-15T05:21:41;-1.40;99.90
11264;DHT22;5689;48.798;9.070;2023-02-15T05:24:10;-1.40;99.90
11264;DHT22;5689;48.798;9.070;2023-02-15T05:26:59;-1.40;99.90
11264;DHT22;5689;48.798;9.070;2023-02-15T05:29:41;-1.50;99.90
11264;DHT22;5689;48.798;9.070;2023-02-15T05:32:12;-1.50;99.90
11264;DHT22;5689;48.798;9.070;2023-02-15T05:34:42;-1.50;99.90
11264;DHT22;5689;48.798;9.070;2023-02-15T05:37:11;-1.70;99.90
11264;DHT22;5689;48.798;9.070;2023-02-15T05:39:39;-1.80;99.90
11264;DHT22;5689;48.798;9.070;2023-02-15T05:42:09;-1.60;99.90
11264;DHT22;5689;48.798;9.070;2023-02-15T05:44:37;-1.60;99.90
11264;DHT22;5689;48.798;9.070;2023-02-15T05:47:14;-1.40;99.90
11264;DHT22;5689;48.798;9.070;2023-02-15T05:49:42;-1.40;99.90
11264;DHT22;5689;48.798;9.070;2023-02-15T05:52:11;-1.50;99.90
11264;DHT22;5689;48.798;9.070;2023-02-15T05:54:39;-1.60;99.90
11264;DHT22;5689;48.798;9.070;2023-02-15T05:57:09;-1.50;99.90
11264;DHT22;5689;48.798;9.070;2023-02-15T05:59:37;-1.30;99.90
11264;DHT22;5689;48.798;9.070;2023-02-15T06:02:05;-1.30;99.90
11264;DHT22;5689;48.798;9.070;2023-02-15T06:04:34;-1.40;99.90
11264;DHT22;5689;48.798;9.070;2023-02-15T06:07:02;-1.30;99.90
11264;DHT22;5689;48.798;9.070;2023-02-15T06:09:30;-1.30;99.90
11264;DHT22;5689;48.798;9.070;2023-02-15T06:11:58;-1.40;99.90
11264;DHT22;5689;48.798;9.070;2023-02-15T06:14:28;-1.40;99.90
11264;DHT22;5689;48.798;9.070;2023-02-15T06:16:58;-1.50;99.90
11264;DHT22;5689;48.798;9.070;2023-02-15T06:19:27;-1.70;99.90
11264;DHT22;5689;48.798;9.070;2023-02-15T06:21:56;-1.80;99.90
11264;DHT22;5689;48.798;9.070;2023-02-15T06:24:24;-1.60;99.90
11264;DHT22;5689;48.798;9.070;2023-02-15T06:26:52;-1.40;99.90
11264;DHT22;5689;48.798;9.070;2023-02-15T06:29:21;-1.50;99.90
11264;DHT22;5689;48.798;9.070;2023-02-15T06:31:51;-1.60;99.90
11264;DHT22;5689;48.798;9.070;2023-02-15T06:34:20;-1.40;99.90
11264;DHT22;5689;48.798;9.070;2023-02-15T06:36:48;-1.40;99.90
11264;DHT22;5689;48.798;9.070;2023-02-15T06:39:17;-1.60;99.90
11264;DHT22;5689;48.798;9.070;2023-02-15T06:41:45;-1.40;99.90
11264;DHT22;5689;48.798;9.070;2023-02-15T06:44:14;-1.30;99.90
11264;DHT22;5689;48.798;9.070;2023-02-15T06:46:43;-1.30;99.90
11264;DHT22;5689;48.798;9.070;2023-02-15T06:49:17;-1.50;99.90
11264;DHT22;5689;48.798;9.070;2023-02-15T06:51:46;-1.40;99.90
11264;DHT22;5689;48.798;9.070;2023-02-15T06:54:14;-1.60;99.90
11264;DHT22;5689;48.798;9.070;2023-02-15T06:56:44;-1.70;99.90
11264;DHT22;5689;48.798;9.070;2023-02-15T06:59:13;-1.60;99.90
11264;DHT22;5689;48.798;9.070;2023-02-15T07:01:42;-1.30;99.90
11264;DHT22;5689;48.798;9.070;2023-02-15T07:04:10;-1.40;99.90
11264;DHT22;5689;48.798;9.070;2023-02-15T07:06:40;-1.30;99.90
11264;DHT22;5689;48.798;9.070;2023-02-15T07:09:09;-1.20;99.90
11264;DHT22;5689;48.798;9.070;2023-02-15T07:11:38;-1.30;99.90
11264;DHT22;5689;48.798;9.070;2023-02-15T07:14:24;-1.30;99.90
11264;DHT22;5689;48.798;9.070;2023-02-15T07:16:54;-1.10;99.90
11264;DHT22;5689;48.798;9.070;2023-02-15T07:19:24;-1.00;99.90
11264;DHT22;5689;48.798;9.070;2023-02-15T07:21:53;-0.90;99.90
11264;DHT22;5689;48.798;9.070;2023-02-15T07:24:22;-1.00;99.90
11264;DHT22;5689;48.798;9.070;2023-02-15T07:26:50;-0.80;99.90
11264;DHT22;5689;48.798;9.070;2023-02-15T07:29:18;-1.30;99.90
11264;DHT22;5689;48.798;9.070;2023-02-15T07:31:46;-1.40;99.90
11264;DHT22;5689;48.798;9.070;2023-02-15T07:34:15;-1.20;99.90
11264;DHT22;5689;48.798;9.070;2023-02-15T07:36:44;-1.50;99.90
11264;DHT22;5689;48.798;9.070;2023-02-15T07:39:29;-1.50;99.90
11264;DHT22;5689;48.798;9.070;2023-02-15T07:41:59;-1.80;99.90
11264;DHT22;5689;48.798;9.070;2023-02-15T07:44:30;-1.30;99.90
11264;DHT22;5689;48.798;9.070;2023-02-15T07:46:58;-0.80;99.90
11264;DHT22;5689;48.798;9.070;2023-02-15T07:49:26;-0.70;99.90
11264;DHT22;5689;48.798;9.070;2023-02-15T07:51:54;-0.60;99.90
11264;DHT22;5689;48.798;9.070;2023-02-15T07:54:23;-0.70;99.90
11264;DHT22;5689;48.798;9.070;2023-02-15T07:56:52;-0.60;99.90
11264;DHT22;5689;48.798;9.070;2023-02-15T07:59:21;-0.80;99.90
11264;DHT22;5689;48.798;9.070;2023-02-15T08:01:49;-0.90;99.90
11264;DHT22;5689;48.798;9.070;2023-02-15T08:04:22;-1.10;99.90
11264;DHT22;5689;48.798;9.070;2023-02-15T08:06:53;-1.10;99.90
11264;DHT22;5689;48.798;9.070;2023-02-15T08:09:22;-1.50;99.90
11264;DHT22;5689;48.798;9.070;2023-02-15T08:11:51;-1.50;99.90
11264;DHT22;5689;48.798;9.070;2023-02-15T08:14:21;-1.20;99.90
11264;DHT22;5689;48.798;9.070;2023-02-15T08:16:50;-1.20;99.90
11264;DHT22;5689;48.798;9.070;2023-02-15T08:19:20;-1.00;99.90
11264;DHT22;5689;48.798;9.070;2023-02-15T08:21:51;-0.80;99.90
11264;DHT22;5689;48.798;9.070;2023-02-15T08:24:21;-0.90;99.90
11264;DHT22;5689;48.798;9.070;2023-02-15T08:26:51;-1.30;99.90
11264;DHT22;5689;48.798;9.070;2023-02-15T08:29:22;-1.00;99.90
11264;DHT22;5689;48.798;9.070;2023-02-15T08:31:54;-0.80;99.90
11264;DHT22;5689;48.798;9.070;2023-02-15T08:34:25;-1.00;99.90
11264;DHT22;5689;48.798;9.070;2023-02-15T08:36:53;-0.80;99.90
11264;DHT22;5689;48.798;9.070;2023-02-15T08:39:22;-0.60;99.90
11264;DHT22;5689;48.798;9.070;2023-02-15T08:41:53;-0.60;99.90
11264;DHT22;5689;48.798;9.070;2023-02-15T08:44:21;-0.60;99.90
11264;DHT22;5689;48.798;9.070;2023-02-15T08:46:51;-0.70;99.90
11264;DHT22;5689;48.798;9.070;2023-02-15T08:49:36;-0.30;99.90
11264;DHT22;5689;48.798;9.070;2023-02-15T08:52:14;-0.60;99.90
11264;DHT22;5689;48.798;9.070;2023-02-15T08:54:42;-0.60;99.90
11264;DHT22;5689;48.798;9.070;2023-02-15T08:57:12;0.00;99.90
11264;DHT22;5689;48.798;9.070;2023-02-15T08:59:41;0.20;99.90
11264;DHT22;5689;48.798;9.070;2023-02-15T09:02:10;0.30;99.90
11264;DHT22;5689;48.798;9.070;2023-02-15T09:04:38;0.50;99.90
11264;DHT22;5689;48.798;9.070;2023-02-15T09:07:06;1.40;99.90
11264;DHT22;5689;48.798;9.070;2023-02-15T09:09:35;1.80;99.90
11264;DHT22;5689;48.798;9.070;2023-02-15T09:12:04;1.90;99.90
11264;DHT22;5689;48.798;9.070;2023-02-15T09:14:34;2.50;99.90
11264;DHT22;5689;48.798;9.070;2023-02-15T09:17:03;2.70;99.90
11264;DHT22;5689;48.798;9.070;2023-02-15T09:19:41;2.90;99.90
11264;DHT22;5689;48.798;9.070;2023-02-15T09:22:11;2.20;99.90
11264;DHT22;5689;48.798;9.070;2023-02-15T09:24:39;2.00;99.90
11264;DHT22;5689;48.798;9.070;2023-02-15T09:27:08;1.80;99.90
11264;DHT22;5689;48.798;9.070;2023-02-15T09:29:37;2.70;99.90
11264;DHT22;5689;48.798;9.070;2023-02-15T09:32:05;3.20;99.90
11264;DHT22;5689;48.798;9.070;2023-02-15T09:34:34;4.40;99.90
11264;DHT22;5689;48.798;9.070;2023-02-15T09:37:05;4.60;99.90
11264;DHT22;5689;48.798;9.070;2023-02-15T09:39:34;5.70;99.90
11264;DHT22;5689;48.798;9.070;2023-02-15T09:42:34;6.60;99.90
11264;DHT22;5689;48.798;9.070;2023-02-15T09:45:34;6.50;99.90
11264;DHT22;5689;48.798;9.070;2023-02-15T09:48:35;6.10;99.90
11264;DHT22;5689;48.798;9.070;2023-02-15T09:51:54;5.40;99.90
11264;DHT22;5689;48.798;9.070;2023-02-15T09:54:37;6.70;99.90
11264;DHT22;5689;48.798;9.070;2023-02-15T10:00:38;6.40;99.90
11264;DHT22;5689;48.798;9.070;2023-02-15T10:03:22;8.10;99.90
11264;DHT22;5689;48.798;9.070;2023-02-15T10:06:18;7.40;99.90
11264;DHT22;5689;48.798;9.070;2023-02-15T10:09:15;7.70;99.90
11264;DHT22;5689;48.798;9.070;2023-02-15T10:12:31;9.00;99.90
11264;DHT22;5689;48.798;9.070;2023-02-15T10:15:19;8.30;99.90
11264;DHT22;5689;48.798;9.070;2023-02-15T10:18:11;10.70;99.90
11264;DHT22;5689;48.798;9.070;2023-02-15T10:20:51;11.40;99.90
11264;DHT22;5689;48.798;9.070;2023-02-15T10:23:50;12.90;96.30
11264;DHT22;5689;48.798;9.070;2023-02-15T10:26:21;11.70;95.90
11264;DHT22;5689;48.798;9.070;2023-02-15T10:28:51;13.30;93.60
11264;DHT22;5689;48.798;9.070;2023-02-15T10:31:24;13.00;91.10
11264;DHT22;5689;48.798;9.070;2023-02-15T10:34:09;12.60;92.50
11264;DHT22;5689;48.798;9.070;2023-02-15T10:37:00;14.30;91.20
11264;DHT22;5689;48.798;9.070;2023-02-15T10:39:40;14.70;90.00
11264;DHT22;5689;48.798;9.070;2023-02-15T10:42:19;15.30;88.00
11264;DHT22;5689;48.798;9.070;2023-02-15T10:47:49;12.30;90.90
11264;DHT22;5689;48.798;9.070;2023-02-15T10:50:30;13.40;89.70
11264;DHT22;5689;48.798;9.070;2023-02-15T10:53:13;15.20;86.60
11264;DHT22;5689;48.798;9.070;2023-02-15T10:55:54;14.10;86.00
11264;DHT22;5689;48.798;9.070;2023-02-15T10:58:35;15.60;83.80
11264;DHT22;5689;48.798;9.070;2023-02-15T11:01:13;14.50;83.90
11264;DHT22;5689;48.798;9.070;2023-02-15T11:06:48;14.30;86.90
11264;DHT22;5689;48.798;9.070;2023-02-15T11:09:21;14.50;87.60
11264;DHT22;5689;48.798;9.070;2023-02-15T11:11:51;15.50;84.20
11264;DHT22;5689;48.798;9.070;2023-02-15T11:14:26;15.50;81.90
11264;DHT22;5689;48.798;9.070;2023-02-15T11:17:02;13.40;85.70
11264;DHT22;5689;48.798;9.070;2023-02-15T11:19:34;12.60;91.40
11264;DHT22;5689;48.798;9.070;2023-02-15T11:22:06;14.40;87.00
11264;DHT22;5689;48.798;9.070;2023-02-15T11:24:40;15.70;84.30
11264;DHT22;5689;48.798;9.070;2023-02-15T11:27:18;15.90;81.70
11264;DHT22;5689;48.798;9.070;2023-02-15T11:29:55;18.50;77.10
11264;DHT22;5689;48.798;9.070;2023-02-15T11:32:27;14.00;81.50
11264;DHT22;5689;48.798;9.070;2023-02-15T11:34:59;13.00;88.10
11264;DHT22;5689;48.798;9.070;2023-02-15T11:37:34;15.40;84.40
11264;DHT22;5689;48.798;9.070;2023-02-15T11:40:13;14.90;82.70
11264;DHT22;5689;48.798;9.070;2023-02-15T11:42:43;14.10;85.80
11264;DHT22;5689;48.798;9.070;2023-02-15T11:45:20;14.20;88.30
11264;DHT22;5689;48.798;9.070;2023-02-15T11:47:49;14.50;87.50
11264;DHT22;5689;48.798;9.070;2023-02-15T11:50:20;13.60;85.80
11264;DHT22;5689;48.798;9.070;2023-02-15T11:52:52;12.40;90.30
11264;DHT22;5689;48.798;9.070;2023-02-15T11:55:22;15.10;84.90
11264;DHT22;5689;48.798;9.070;2023-02-15T11:57:54;16.50;82.80
11264;DHT22;5689;48.798;9.070;2023-02-15T12:00:31;14.20;87.20
11264;DHT22;5689;48.798;9.070;2023-02-15T12:03:12;14.90;85.70
11264;DHT22;5689;48.798;9.070;2023-02-15T12:05:45;13.60;86.30
11264;DHT22;5689;48.798;9.070;2023-02-15T12:08:20;12.40;90.10
11264;DHT22;5689;48.798;9.070;2023-02-15T12:10:57;13.10;90.00
11264;DHT22;5689;48.798;9.070;2023-02-15T12:13:28;13.70;90.30
11264;DHT22;5689;48.798;9.070;2023-02-15T12:15:58;15.30;87.40
11264;DHT22;5689;48.798;9.070;2023-02-15T12:18:34;14.70;85.90
11264;DHT22;5689;48.798;9.070;2023-02-15T12:21:06;14.20;88.00
11264;DHT22;5689;48.798;9.070;2023-02-15T12:23:43;14.10;88.80
11264;DHT22;5689;48.798;9.070;2023-02-15T12:26:14;14.00;89.10
11264;DHT22;5689;48.798;9.070;2023-02-15T12:28:44;15.60;85.00
11264;DHT22;5689;48.798;9.070;2023-02-15T12:31:21;16.90;80.50
11264;DHT22;5689;48.798;9.070;2023-02-15T12:33:52;17.10;80.30
11264;DHT22;5689;48.798;9.070;2023-02-15T12:36:22;18.80;78.80
11264;DHT22;5689;48.798;9.070;2023-02-15T12:39:17;17.20;77.10
11264;DHT22;5689;48.798;9.070;2023-02-15T12:41:57;17.60;78.80
11264;DHT22;5689;48.798;9.070;2023-02-15T12:44:26;19.00;75.70
11264;DHT22;5689;48.798;9.070;2023-02-15T12:47:00;18.10;78.40
11264;DHT22;5689;48.798;9.070;2023-02-15T12:49:30;17.70;76.60
11264;DHT22;5689;48.798;9.070;2023-02-15T12:52:00;15.10;82.90
11264;DHT22;5689;48.798;9.070;2023-02-15T12:54:36;14.90;86.90
11264;DHT22;5689;48.798;9.070;2023-02-15T12:57:15;16.40;82.10
11264;DHT22;5689;48.798;9.070;2023-02-15T12:59:49;17.70;80.50
11264;DHT22;5689;48.798;9.070;2023-02-15T13:02:22;18.30;76.10
11264;DHT22;5689;48.798;9.070;2023-02-15T13:04:51;17.70;78.10
11264;DHT22;5689;48.798;9.070;2023-02-15T13:07:20;16.20;82.00
11264;DHT22;5689;48.798;9.070;2023-02-15T13:09:50;15.80;83.60
11264;DHT22;5689;48.798;9.070;2023-02-15T13:12:21;17.40;80.00
11264;DHT22;5689;48.798;9.070;2023-02-15T13:14:51;18.70;80.40
11264;DHT22;5689;48.798;9.070;2023-02-15T13:17:25;18.50;77.90
11264;DHT22;5689;48.798;9.070;2023-02-15T13:19:58;21.00;72.80
11264;DHT22;5689;48.798;9.070;2023-02-15T13:22:33;21.00;70.60
11264;DHT22;5689;48.798;9.070;2023-02-15T13:25:11;17.30;80.50
11264;DHT22;5689;48.798;9.070;2023-02-15T13:27:41;15.70;83.90
11264;DHT22;5689;48.798;9.070;2023-02-15T13:30:25;17.40;79.60
11264;DHT22;5689;48.798;9.070;2023-02-15T13:32:59;15.50;84.20
11264;DHT22;5689;48.798;9.070;2023-02-15T13:35:36;15.10;86.60
11264;DHT22;5689;48.798;9.070;2023-02-15T13:38:22;15.60;84.50
11264;DHT22;5689;48.798;9.070;2023-02-15T13:41:00;16.80;81.50
11264;DHT22;5689;48.798;9.070;2023-02-15T13:43:38;16.30;84.30
11264;DHT22;5689;48.798;9.070;2023-02-15T13:46:18;16.50;82.10
11264;DHT22;5689;48.798;9.070;2023-02-15T13:48:56;18.30;79.70
11264;DHT22;5689;48.798;9.070;2023-02-15T13:51:35;19.80;75.50
11264;DHT22;5689;48.798;9.070;2023-02-15T13:54:29;19.20;76.70
11264;DHT22;5689;48.798;9.070;2023-02-15T13:57:19;17.60;77.90
11264;DHT22;5689;48.798;9.070;2023-02-15T14:00:01;19.10;76.90
11264;DHT22;5689;48.798;9.070;2023-02-15T14:02:57;19.70;74.20
11264;DHT22;5689;48.798;9.070;2023-02-15T14:05:32;18.70;76.30
11264;DHT22;5689;48.798;9.070;2023-02-15T14:08:11;17.80;79.30
11264;DHT22;5689;48.798;9.070;2023-02-15T14:10:46;17.40;79.10
11264;DHT22;5689;48.798;9.070;2023-02-15T14:13:54;15.90;84.90
11264;DHT22;5689;48.798;9.070;2023-02-15T14:16:34;16.90;82.00
11264;DHT22;5689;48.798;9.070;2023-02-15T14:19:13;17.70;80.50
11264;DHT22;5689;48.798;9.070;2023-02-15T14:21:48;17.70;81.80
11264;DHT22;5689;48.798;9.070;2023-02-15T14:24:28;17.70;80.60
11264;DHT22;5689;48.798;9.070;2023-02-15T14:27:05;18.30;78.50
11264;DHT22;5689;48.798;9.070;2023-02-15T14:29:47;19.40;78.20
11264;DHT22;5689;48.798;9.070;2023-02-15T14:32:20;21.00;73.70
11264;DHT22;5689;48.798;9.070;2023-02-15T14:34:53;17.10;79.90
11264;DHT22;5689;48.798;9.070;2023-02-15T14:37:31;17.50;81.50
11264;DHT22;5689;48.798;9.070;2023-02-15T14:40:07;19.10;76.90
11264;DHT22;5689;48.798;9.070;2023-02-15T14:43:00;19.00;76.90
11264;DHT22;5689;48.798;9.070;2023-02-15T14:45:35;17.60;80.50
11264;DHT22;5689;48.798;9.070;2023-02-15T14:48:14;17.10;80.40
11264;DHT22;5689;48.798;9.070;2023-02-15T14:50:45;17.20;81.00
11264;DHT22;5689;48.798;9.070;2023-02-15T14:53:34;16.80;82.00
11264;DHT22;5689;48.798;9.070;2023-02-15T14:56:11;18.30;78.70
11264;DHT22;5689;48.798;9.070;2023-02-15T14:59:14;16.10;83.90
11264;DHT22;5689;48.798;9.070;2023-02-15T15:01:55;16.70;81.50
11264;DHT22;5689;48.798;9.070;2023-02-15T15:04:30;15.50;85.70
11264;DHT22;5689;48.798;9.070;2023-02-15T15:07:08;14.00;88.80
11264;DHT22;5689;48.798;9.070;2023-02-15T15:09:37;14.50;89.40
11264;DHT22;5689;48.798;9.070;2023-02-15T15:12:37;14.40;89.30
11264;DHT22;5689;48.798;9.070;2023-02-15T15:15:06;14.50;88.80
11264;DHT22;5689;48.798;9.070;2023-02-15T15:17:59;13.40;91.00
11264;DHT22;5689;48.798;9.070;2023-02-15T15:20:45;14.20;90.60
11264;DHT22;5689;48.798;9.070;2023-02-15T15:23:41;16.00;85.90
11264;DHT22;5689;48.798;9.070;2023-02-15T15:26:30;16.60;83.60
11264;DHT22;5689;48.798;9.070;2023-02-15T15:29:00;16.10;83.50
11264;DHT22;5689;48.798;9.070;2023-02-15T15:31:39;15.80;85.50
11264;DHT22;5689;48.798;9.070;2023-02-15T15:34:51;13.40;90.90
11264;DHT22;5689;48.798;9.070;2023-02-15T15:40:55;12.10;93.50
11264;DHT22;5689;48.798;9.070;2023-02-15T15:46:47;12.40;93.60
11264;DHT22;5689;48.798;9.070;2023-02-15T15:49:23;12.30;93.50
11264;DHT22;5689;48.798;9.070;2023-02-15T15:51:52;12.50;92.50
11264;DHT22;5689;48.798;9.070;2023-02-15T15:54:22;11.20;94.70
11264;DHT22;5689;48.798;9.070;2023-02-15T15:56:52;10.80;95.10
11264;DHT22;5689;48.798;9.070;2023-02-15T15:59:23;10.40;96.20
11264;DHT22;5689;48.798;9.070;2023-02-15T16:01:52;9.80;97.90
11264;DHT22;5689;48.798;9.070;2023-02-15T16:04:26;9.90;98.40
11264;DHT22;5689;48.798;9.070;2023-02-15T16:06:54;9.90;98.60
11264;DHT22;5689;48.798;9.070;2023-02-15T16:09:23;9.80;98.40
11264;DHT22;5689;48.798;9.070;2023-02-15T16:11:54;9.50;99.00
11264;DHT22;5689;48.798;9.070;2023-02-15T16:14:27;9.40;99.40
11264;DHT22;5689;48.798;9.070;2023-02-15T16:16:59;9.20;99.90
11264;DHT22;5689;48.798;9.070;2023-02-15T16:19:33;9.00;99.90
11264;DHT22;5689;48.798;9.070;2023-02-15T16:22:15;8.70;99.90
11264;DHT22;5689;48.798;9.070;2023-02-15T16:24:59;8.40;99.90
11264;DHT22;5689;48.798;9.070;2023-02-15T16:27:34;8.30;99.90
11264;DHT22;5689;48.798;9.070;2023-02-15T16:30:36;8.10;99.90
11264;DHT22;5689;48.798;9.070;2023-02-15T16:33:08;7.70;99.90
11264;DHT22;5689;48.798;9.070;2023-02-15T16:35:39;7.60;99.90
11264;DHT22;5689;48.798;9.070;2023-02-15T16:38:10;7.50;99.90
11264;DHT22;5689;48.798;9.070;2023-02-15T16:40:49;7.40;99.90
11264;DHT22;5689;48.798;9.070;2023-02-15T16:43:23;7.40;99.90
11264;DHT22;5689;48.798;9.070;2023-02-15T16:45:58;7.30;99.90
11264;DHT22;5689;48.798;9.070;2023-02-15T16:48:42;7.00;99.90
11264;DHT22;5689;48.798;9.070;2023-02-15T16:51:18;6.90;99.90
11264;DHT22;5689;48.798;9.070;2023-02-15T16:53:48;6.70;99.90
11264;DHT22;5689;48.798;9.070;2023-02-15T16:56:23;6.60;99.90
11264;DHT22;5689;48.798;9.070;2023-02-15T16:58:52;6.60;99.90
11264;DHT22;5689;48.798;9.070;2023-02-15T17:01:32;6.40;99.90